EZY532 EGAC-EGGP
Flight info
| Callsign | EZY532 |
|---|---|
| Flight time | 0h 28m |
| Altitude | 19000 |
| Route | DUFFY L15 PEPOD Q38 SOSIM L28 PENIL |
| Aircraft | A320/M-SDE2E3FGHIJ1RWXYZ/LB1 |
Departure
| Time | 2026-05-08 09:35 |
|---|---|
| Airport | George Best Belfast City Airport (EGAC) |
Arrival
| Time | 2026-05-08 10:03 |
|---|---|
| Airport | Liverpool John Lennon Airport (EGGP) |
| Time | Latitude | Longitude | Altitude | Speed | Heading |
|---|---|---|---|---|---|
| 2026-05-08 09:11 | 54.61499 | -5.87145 | 22 ft | 0 kts | 156° |
| 2026-05-08 09:28 | 54.61519 | -5.87161 | 22 ft | 4 kts | 145° |
| 2026-05-08 09:28 | 54.61537 | -5.87191 | 21 ft | 4 kts | 107° |
| 2026-05-08 09:29 | 54.61536 | -5.87217 | 21 ft | 1 kts | 35° |
| 2026-05-08 09:29 | 54.61533 | -5.87222 | 21 ft | 0 kts | 35° |
| 2026-05-08 09:31 | 54.61537 | -5.87216 | 21 ft | 4 kts | 35° |
| 2026-05-08 09:31 | 54.61584 | -5.87158 | 23 ft | 13 kts | 35° |
| 2026-05-08 09:31 | 54.61657 | -5.87070 | 23 ft | 12 kts | 35° |
| 2026-05-08 09:32 | 54.61724 | -5.86994 | 23 ft | 11 kts | 24° |
| 2026-05-08 09:32 | 54.61796 | -5.87088 | 20 ft | 19 kts | 303° |
| 2026-05-08 09:32 | 54.61886 | -5.87166 | 19 ft | 14 kts | 38° |
| 2026-05-08 09:32 | 54.61992 | -5.87036 | 16 ft | 23 kts | 36° |
| 2026-05-08 09:33 | 54.62132 | -5.86866 | 16 ft | 26 kts | 35° |
| 2026-05-08 09:33 | 54.62278 | -5.86692 | 20 ft | 26 kts | 35° |
| 2026-05-08 09:33 | 54.62390 | -5.86557 | 22 ft | 13 kts | 37° |
| 2026-05-08 09:33 | 54.62436 | -5.86435 | 21 ft | 12 kts | 34° |
| 2026-05-08 09:34 | 54.62460 | -5.86477 | 21 ft | 4 kts | 231° |
| 2026-05-08 09:34 | 54.62455 | -5.86482 | 20 ft | 3 kts | 216° |
| 2026-05-08 09:34 | 54.62195 | -5.86793 | 20 ft | 88 kts | 214° |
| 2026-05-08 09:34 | 54.61491 | -5.87630 | 34 ft | 153 kts | 214° |
| 2026-05-08 09:35 | 54.60591 | -5.88711 | 662 ft | 161 kts | 214° |
| 2026-05-08 09:35 | 54.59641 | -5.89844 | 1349 ft | 174 kts | 214° |
| 2026-05-08 09:35 | 54.58562 | -5.90946 | 1984 ft | 188 kts | 200° |
| 2026-05-08 09:35 | 54.57191 | -5.91103 | 2387 ft | 214 kts | 163° |
| 2026-05-08 09:36 | 54.55772 | -5.89945 | 2871 ft | 239 kts | 152° |
| 2026-05-08 09:36 | 54.54240 | -5.88554 | 3517 ft | 256 kts | 153° |
| 2026-05-08 09:36 | 54.52643 | -5.87117 | 4438 ft | 262 kts | 153° |
| 2026-05-08 09:36 | 54.51045 | -5.85572 | 5389 ft | 266 kts | 146° |
| 2026-05-08 09:37 | 54.49516 | -5.83729 | 6356 ft | 269 kts | 146° |
| 2026-05-08 09:37 | 54.47972 | -5.81863 | 7307 ft | 273 kts | 146° |
| 2026-05-08 09:37 | 54.46404 | -5.79966 | 8243 ft | 277 kts | 146° |
| 2026-05-08 09:37 | 54.44814 | -5.78050 | 9141 ft | 281 kts | 146° |
| 2026-05-08 09:38 | 54.43198 | -5.76109 | 10020 ft | 285 kts | 146° |
| 2026-05-08 09:38 | 54.41526 | -5.74106 | 10524 ft | 305 kts | 146° |
| 2026-05-08 09:38 | 54.39733 | -5.71961 | 11026 ft | 320 kts | 146° |
| 2026-05-08 09:38 | 54.37885 | -5.69755 | 11799 ft | 326 kts | 146° |
| 2026-05-08 09:39 | 54.36010 | -5.67519 | 12609 ft | 330 kts | 147° |
| 2026-05-08 09:39 | 54.34116 | -5.65263 | 13389 ft | 334 kts | 147° |
| 2026-05-08 09:39 | 54.32200 | -5.62982 | 14131 ft | 337 kts | 147° |
| 2026-05-08 09:39 | 54.30261 | -5.60674 | 14867 ft | 341 kts | 147° |
| 2026-05-08 09:40 | 54.28314 | -5.58330 | 15578 ft | 345 kts | 144° |
| 2026-05-08 09:40 | 54.26555 | -5.55502 | 16246 ft | 350 kts | 132° |
| 2026-05-08 09:40 | 54.25092 | -5.52139 | 16911 ft | 354 kts | 127° |
| 2026-05-08 09:40 | 54.23654 | -5.48682 | 17565 ft | 358 kts | 127° |
| 2026-05-08 09:41 | 54.22193 | -5.45210 | 18211 ft | 361 kts | 128° |
| 2026-05-08 09:41 | 54.20730 | -5.41759 | 18796 ft | 365 kts | 128° |
| 2026-05-08 09:41 | 54.19212 | -5.38190 | 19022 ft | 367 kts | 128° |
| 2026-05-08 09:41 | 54.17737 | -5.34719 | 19083 ft | 367 kts | 128° |
| 2026-05-08 09:42 | 54.16219 | -5.31145 | 19083 ft | 367 kts | 128° |
| 2026-05-08 09:42 | 54.14741 | -5.27666 | 19063 ft | 367 kts | 128° |
| 2026-05-08 09:42 | 54.13243 | -5.24143 | 19080 ft | 367 kts | 128° |
| 2026-05-08 09:42 | 54.11742 | -5.20616 | 19082 ft | 367 kts | 128° |
| 2026-05-08 09:43 | 54.10243 | -5.17099 | 19082 ft | 367 kts | 128° |
| 2026-05-08 09:43 | 54.08739 | -5.13581 | 19083 ft | 367 kts | 128° |
| 2026-05-08 09:43 | 54.07235 | -5.10071 | 19083 ft | 367 kts | 128° |
| 2026-05-08 09:43 | 54.05731 | -5.06562 | 19081 ft | 367 kts | 128° |
| 2026-05-08 09:44 | 54.04228 | -5.03057 | 19083 ft | 367 kts | 128° |
| 2026-05-08 09:44 | 54.02720 | -4.99551 | 19085 ft | 367 kts | 128° |
| 2026-05-08 09:44 | 54.01211 | -4.96054 | 19083 ft | 367 kts | 128° |
| 2026-05-08 09:44 | 53.99699 | -4.92554 | 19084 ft | 367 kts | 128° |
| 2026-05-08 09:45 | 53.98188 | -4.89054 | 19087 ft | 367 kts | 128° |
| 2026-05-08 09:45 | 53.96674 | -4.85553 | 19089 ft | 367 kts | 128° |
| 2026-05-08 09:45 | 53.95161 | -4.82059 | 19091 ft | 367 kts | 128° |
| 2026-05-08 09:45 | 53.93646 | -4.78568 | 19094 ft | 367 kts | 128° |
| 2026-05-08 09:46 | 53.92131 | -4.75080 | 19095 ft | 368 kts | 128° |
| 2026-05-08 09:46 | 53.90614 | -4.71585 | 19096 ft | 368 kts | 128° |
| 2026-05-08 09:46 | 53.89098 | -4.68095 | 19097 ft | 368 kts | 128° |
| 2026-05-08 09:46 | 53.87579 | -4.64612 | 19098 ft | 367 kts | 128° |
| 2026-05-08 09:47 | 53.86056 | -4.61134 | 19098 ft | 367 kts | 128° |
| 2026-05-08 09:47 | 53.84532 | -4.57662 | 19100 ft | 367 kts | 128° |
| 2026-05-08 09:47 | 53.83010 | -4.54195 | 19099 ft | 367 kts | 128° |
| 2026-05-08 09:47 | 53.81584 | -4.50600 | 19099 ft | 368 kts | 120° |
| 2026-05-08 09:48 | 53.80562 | -4.46621 | 19098 ft | 370 kts | 112° |
| 2026-05-08 09:48 | 53.79627 | -4.42571 | 19097 ft | 370 kts | 113° |
| 2026-05-08 09:48 | 53.78689 | -4.38523 | 19096 ft | 370 kts | 113° |
| 2026-05-08 09:48 | 53.77750 | -4.34485 | 19039 ft | 367 kts | 113° |
| 2026-05-08 09:49 | 53.76825 | -4.30522 | 18782 ft | 358 kts | 113° |
| 2026-05-08 09:49 | 53.75918 | -4.26652 | 18434 ft | 352 kts | 113° |
| 2026-05-08 09:49 | 53.75017 | -4.22816 | 17965 ft | 351 kts | 113° |
| 2026-05-08 09:49 | 53.74423 | -4.20289 | 17648 ft | 350 kts | 113° |
| 2026-05-08 09:50 | 53.73525 | -4.16476 | 17191 ft | 348 kts | 113° |
| 2026-05-08 09:50 | 53.72631 | -4.12686 | 16735 ft | 347 kts | 113° |
| 2026-05-08 09:50 | 53.71741 | -4.08913 | 16280 ft | 345 kts | 113° |
| 2026-05-08 09:50 | 53.70854 | -4.05160 | 15838 ft | 343 kts | 113° |
| 2026-05-08 09:51 | 53.69968 | -4.01433 | 15384 ft | 342 kts | 113° |
| 2026-05-08 09:51 | 53.69084 | -3.97718 | 14939 ft | 341 kts | 113° |
| 2026-05-08 09:51 | 53.68207 | -3.94019 | 14484 ft | 339 kts | 113° |
| 2026-05-08 09:51 | 53.67333 | -3.90332 | 14034 ft | 338 kts | 113° |
| 2026-05-08 09:52 | 53.66459 | -3.86659 | 13586 ft | 336 kts | 113° |
| 2026-05-08 09:52 | 53.65590 | -3.83013 | 13128 ft | 335 kts | 113° |
| 2026-05-08 09:52 | 53.64719 | -3.79379 | 12668 ft | 333 kts | 113° |
| 2026-05-08 09:52 | 53.63851 | -3.75764 | 12209 ft | 332 kts | 113° |
| 2026-05-08 09:53 | 53.62988 | -3.72176 | 11744 ft | 330 kts | 113° |
| 2026-05-08 09:53 | 53.62106 | -3.68615 | 11277 ft | 328 kts | 117° |
| 2026-05-08 09:53 | 53.60899 | -3.65397 | 10811 ft | 324 kts | 130° |
| 2026-05-08 09:53 | 53.59341 | -3.62681 | 10400 ft | 320 kts | 137° |
| 2026-05-08 09:54 | 53.57765 | -3.60140 | 10271 ft | 307 kts | 137° |
| 2026-05-08 09:54 | 53.56251 | -3.57693 | 10137 ft | 296 kts | 137° |
| 2026-05-08 09:54 | 53.54790 | -3.55322 | 9916 ft | 289 kts | 137° |
| 2026-05-08 09:54 | 53.53343 | -3.52985 | 9510 ft | 289 kts | 137° |
| 2026-05-08 09:55 | 53.51419 | -3.49887 | 8961 ft | 289 kts | 137° |
| 2026-05-08 09:55 | 53.50473 | -3.48362 | 8702 ft | 284 kts | 137° |
| 2026-05-08 09:55 | 53.49036 | -3.46025 | 8019 ft | 281 kts | 134° |
| 2026-05-08 09:55 | 53.47879 | -3.43406 | 7355 ft | 279 kts | 120° |
| 2026-05-08 09:56 | 53.47044 | -3.40534 | 6666 ft | 277 kts | 117° |
| 2026-05-08 09:56 | 53.46217 | -3.37651 | 6365 ft | 262 kts | 117° |
| 2026-05-08 09:56 | 53.45410 | -3.34851 | 6319 ft | 270 kts | 117° |
| 2026-05-08 09:56 | 53.44587 | -3.32012 | 6236 ft | 270 kts | 117° |
| 2026-05-08 09:57 | 53.42464 | -3.26928 | 5761 ft | 272 kts | 141° |
| 2026-05-08 09:57 | 53.40988 | -3.24898 | 5202 ft | 276 kts | 142° |
| 2026-05-08 09:57 | 53.39489 | -3.22883 | 4681 ft | 276 kts | 142° |
| 2026-05-08 09:58 | 53.37983 | -3.20876 | 4168 ft | 275 kts | 142° |
| 2026-05-08 09:58 | 53.36516 | -3.18917 | 3666 ft | 264 kts | 142° |
| 2026-05-08 09:58 | 53.35121 | -3.17047 | 3359 ft | 247 kts | 142° |
| 2026-05-08 09:58 | 53.33848 | -3.15338 | 3295 ft | 223 kts | 142° |
| 2026-05-08 09:59 | 53.32780 | -3.13601 | 3133 ft | 209 kts | 124° |
| 2026-05-08 09:59 | 53.32233 | -3.11422 | 2949 ft | 200 kts | 101° |
| 2026-05-08 09:59 | 53.32217 | -3.09142 | 2718 ft | 193 kts | 86° |
| 2026-05-08 09:59 | 53.32326 | -3.06929 | 2458 ft | 188 kts | 86° |
| 2026-05-08 10:00 | 53.32430 | -3.04794 | 2203 ft | 179 kts | 86° |
| 2026-05-08 10:00 | 53.32527 | -3.02779 | 1977 ft | 168 kts | 86° |
| 2026-05-08 10:00 | 53.32614 | -3.00934 | 1766 ft | 152 kts | 86° |
| 2026-05-08 10:00 | 53.32695 | -2.99240 | 1568 ft | 142 kts | 85° |
| 2026-05-08 10:01 | 53.32771 | -2.97623 | 1382 ft | 138 kts | 85° |
| 2026-05-08 10:01 | 53.32846 | -2.96023 | 1202 ft | 137 kts | 85° |
| 2026-05-08 10:01 | 53.32921 | -2.94441 | 1024 ft | 136 kts | 85° |
| 2026-05-08 10:01 | 53.32995 | -2.92865 | 841 ft | 135 kts | 85° |
| 2026-05-08 10:02 | 53.33068 | -2.91286 | 661 ft | 136 kts | 85° |
| 2026-05-08 10:02 | 53.33143 | -2.89716 | 475 ft | 135 kts | 85° |
| 2026-05-08 10:02 | 53.33216 | -2.88156 | 303 ft | 135 kts | 85° |
| 2026-05-08 10:02 | 53.33286 | -2.86596 | 114 ft | 134 kts | 84° |
| 2026-05-08 10:03 | 53.33353 | -2.85196 | 84 ft | 99 kts | 85° |
| 2026-05-08 10:03 | 53.33405 | -2.84585 | 68 ft | 24 kts | 60° |
| 2026-05-08 10:03 | 53.33482 | -2.84352 | 81 ft | 22 kts | 59° |
| 2026-05-08 10:03 | 53.33555 | -2.84262 | 70 ft | 12 kts | 304° |
| 2026-05-08 10:04 | 53.33555 | -2.84399 | 73 ft | 11 kts | 261° |
| 2026-05-08 10:04 | 53.33549 | -2.84514 | 79 ft | 8 kts | 265° |
| 2026-05-08 10:04 | 53.33545 | -2.84599 | 83 ft | 8 kts | 266° |
| 2026-05-08 10:04 | 53.33540 | -2.84719 | 84 ft | 12 kts | 265° |
| 2026-05-08 10:05 | 53.33533 | -2.84873 | 87 ft | 15 kts | 265° |
| 2026-05-08 10:05 | 53.33524 | -2.85077 | 89 ft | 20 kts | 266° |
| 2026-05-08 10:05 | 53.33511 | -2.85338 | 90 ft | 24 kts | 264° |
| 2026-05-08 10:05 | 53.33496 | -2.85608 | 88 ft | 20 kts | 264° |
| 2026-05-08 10:06 | 53.33545 | -2.85718 | 85 ft | 11 kts | 348° |
| 2026-05-08 10:06 | 53.33604 | -2.85685 | 88 ft | 9 kts | 67° |
| 2026-05-08 10:06 | 53.33614 | -2.85592 | 89 ft | 7 kts | 58° |
| 2026-05-08 10:06 | 53.33654 | -2.85585 | 86 ft | 4 kts | 356° |
| 2026-05-08 10:07 | 53.33661 | -2.85586 | 88 ft | 0 kts | 356° |